sensor_id;sensor_type;location;lat;lon;timestamp;pressure;altitude;pressure_sealevel;temperature;humidity
44926;BME280;30662;51.210;7.656;2023-01-29T00:01:50;147851.50;;;-3.95;100.00
44926;BME280;30662;51.210;7.656;2023-01-29T00:04:16;147810.22;;;-4.11;100.00
44926;BME280;30662;51.210;7.656;2023-01-29T00:06:42;147812.72;;;-4.10;100.00
44926;BME280;30662;51.210;7.656;2023-01-29T00:09:09;147837.72;;;-4.00;100.00
44926;BME280;30662;51.210;7.656;2023-01-29T00:11:35;147820.19;;;-4.07;100.00
44926;BME280;30662;51.210;7.656;2023-01-29T00:14:01;147825.22;;;-4.05;100.00
44926;BME280;30662;51.210;7.656;2023-01-29T00:16:27;147770.13;;;-4.28;100.00
44926;BME280;30662;51.210;7.656;2023-01-29T00:18:53;147861.53;;;-3.91;100.00
44926;BME280;30662;51.210;7.656;2023-01-29T00:21:20;147857.72;;;-3.92;100.00
44926;BME280;30662;51.210;7.656;2023-01-29T00:23:49;147837.72;;;-4.00;100.00
44926;BME280;30662;51.210;7.656;2023-01-29T00:26:16;147800.19;;;-4.16;100.00
44926;BME280;30662;51.210;7.656;2023-01-29T00:28:42;147857.72;;;-3.92;100.00
44926;BME280;30662;51.210;7.656;2023-01-29T00:31:17;147811.47;;;-4.11;100.00
44926;BME280;30662;51.210;7.656;2023-01-29T00:33:43;147810.22;;;-4.11;100.00
44926;BME280;30662;51.210;7.656;2023-01-29T00:36:11;147822.69;;;-4.06;100.00
44926;BME280;30662;51.210;7.656;2023-01-29T00:38:37;147818.94;;;-4.08;100.00
44926;BME280;30662;51.210;7.656;2023-01-29T00:41:08;147832.72;;;-4.02;100.00
44926;BME280;30662;51.210;7.656;2023-01-29T00:43:53;147818.94;;;-4.08;100.00
44926;BME280;30662;51.210;7.656;2023-01-29T00:46:37;147830.22;;;-4.03;100.00
44926;BME280;30662;51.210;7.656;2023-01-29T00:49:04;147840.22;;;-3.99;100.00
44926;BME280;30662;51.210;7.656;2023-01-29T00:51:30;147844.00;;;-3.98;100.00
44926;BME280;30662;51.210;7.656;2023-01-29T00:53:56;147838.97;;;-4.00;100.00
44926;BME280;30662;51.210;7.656;2023-01-29T00:56:24;147822.69;;;-4.06;100.00
44926;BME280;30662;51.210;7.656;2023-01-29T00:58:50;147850.25;;;-3.95;100.00
44926;BME280;30662;51.210;7.656;2023-01-29T01:01:17;147831.47;;;-4.03;100.00
44926;BME280;30662;51.210;7.656;2023-01-29T01:04:04;147810.22;;;-4.11;100.00
44926;BME280;30662;51.210;7.656;2023-01-29T01:06:30;147825.22;;;-4.05;100.00
44926;BME280;30662;51.210;7.656;2023-01-29T01:08:56;147870.25;;;-3.87;100.00
44926;BME280;30662;51.210;7.656;2023-01-29T01:11:40;147927.81;;;-3.64;100.00
44926;BME280;30662;51.210;7.656;2023-01-29T01:14:07;147912.78;;;-3.70;100.00
44926;BME280;30662;51.210;7.656;2023-01-29T01:16:33;147917.84;;;-3.68;100.00
44926;BME280;30662;51.210;7.656;2023-01-29T01:18:59;147929.06;;;-3.63;100.00
44926;BME280;30662;51.210;7.656;2023-01-29T01:21:25;147949.09;;;-3.55;100.00
44926;BME280;30662;51.210;7.656;2023-01-29T01:23:51;147952.88;;;-3.53;100.00
44926;BME280;30662;51.210;7.656;2023-01-29T01:26:18;147969.16;;;-3.47;100.00
44926;BME280;30662;51.210;7.656;2023-01-29T01:28:44;147984.13;;;-3.41;100.00
44926;BME280;30662;51.210;7.656;2023-01-29T01:31:11;148011.72;;;-3.29;100.00
44926;BME280;30662;51.210;7.656;2023-01-29T01:33:38;148020.50;;;-3.26;100.00
44926;BME280;30662;51.210;7.656;2023-01-29T01:36:05;148021.75;;;-3.25;100.00
44926;BME280;30662;51.210;7.656;2023-01-29T01:38:37;148034.22;;;-3.20;100.00
44926;BME280;30662;51.210;7.656;2023-01-29T01:41:15;148041.78;;;-3.17;100.00
44926;BME280;30662;51.210;7.656;2023-01-29T01:44:48;148011.72;;;-3.29;100.00
44926;BME280;30662;51.210;7.656;2023-01-29T01:46:54;147956.63;;;-3.52;100.00
44926;BME280;30662;51.210;7.656;2023-01-29T01:49:20;147945.34;;;-3.56;100.00
44926;BME280;30662;51.210;7.656;2023-01-29T01:51:49;147910.28;;;-3.71;100.00
44926;BME280;30662;51.210;7.656;2023-01-29T01:54:24;147952.88;;;-3.53;100.00
44926;BME280;30662;51.210;7.656;2023-01-29T01:56:56;147892.78;;;-3.78;100.00
44926;BME280;30662;51.210;7.656;2023-01-29T01:59:37;147899.06;;;-3.75;100.00
44926;BME280;30662;51.210;7.656;2023-01-29T02:02:05;147841.47;;;-3.99;100.00
44926;BME280;30662;51.210;7.656;2023-01-29T02:04:51;147825.22;;;-4.05;100.00
44926;BME280;30662;51.210;7.656;2023-01-29T02:07:41;147822.69;;;-4.06;100.00
44926;BME280;30662;51.210;7.656;2023-01-29T02:10:30;147811.47;;;-4.11;100.00
44926;BME280;30662;51.210;7.656;2023-01-29T02:13:01;147805.16;;;-4.13;100.00
44926;BME280;30662;51.210;7.656;2023-01-29T02:15:27;147800.19;;;-4.16;100.00
44926;BME280;30662;51.210;7.656;2023-01-29T02:17:53;147816.44;;;-4.09;100.00
44926;BME280;30662;51.210;7.656;2023-01-29T02:20:23;147786.41;;;-4.21;100.00
44926;BME280;30662;51.210;7.656;2023-01-29T02:28:18;147861.53;;;-3.91;100.00
44926;BME280;30662;51.210;7.656;2023-01-29T02:31:05;147880.28;;;-3.83;100.00
44926;BME280;30662;51.210;7.656;2023-01-29T02:39:15;147932.84;;;-3.62;100.00
44926;BME280;30662;51.210;7.656;2023-01-29T02:42:12;147890.28;;;-3.79;100.00
44926;BME280;30662;51.210;7.656;2023-01-29T02:44:42;147860.28;;;-3.91;100.00
44926;BME280;30662;51.210;7.656;2023-01-29T02:49:54;147871.50;;;-3.86;100.00
44926;BME280;30662;51.210;7.656;2023-01-29T02:52:30;147877.75;;;-3.84;100.00
44926;BME280;30662;51.210;7.656;2023-01-29T02:55:19;147910.28;;;-3.71;100.00
44926;BME280;30662;51.210;7.656;2023-01-29T02:57:48;147952.88;;;-3.53;100.00
44926;BME280;30662;51.210;7.656;2023-01-29T03:00:22;147969.16;;;-3.47;100.00
44926;BME280;30662;51.210;7.656;2023-01-29T03:02:55;147972.91;;;-3.45;100.00
44926;BME280;30662;51.210;7.656;2023-01-29T03:05:42;147915.34;;;-3.69;100.00
44926;BME280;30662;51.210;7.656;2023-01-29T03:08:14;147874.00;;;-3.85;100.00
44926;BME280;30662;51.210;7.656;2023-01-29T03:10:53;147874.00;;;-3.85;100.00
44926;BME280;30662;51.210;7.656;2023-01-29T03:16:04;147897.81;;;-3.76;100.00
44926;BME280;30662;51.210;7.656;2023-01-29T03:18:42;147914.09;;;-3.69;100.00
44926;BME280;30662;51.210;7.656;2023-01-29T03:21:16;147936.59;;;-3.60;100.00
44926;BME280;30662;51.210;7.656;2023-01-29T03:24:03;147981.66;;;-3.42;100.00
44926;BME280;30662;51.210;7.656;2023-01-29T03:26:48;147976.66;;;-3.44;100.00
44926;BME280;30662;51.210;7.656;2023-01-29T03:29:34;147984.13;;;-3.41;100.00
44926;BME280;30662;51.210;7.656;2023-01-29T03:32:21;148004.22;;;-3.33;100.00
44926;BME280;30662;51.210;7.656;2023-01-29T03:34:53;148001.66;;;-3.34;100.00
44926;BME280;30662;51.210;7.656;2023-01-29T03:37:44;148006.72;;;-3.31;100.00
44926;BME280;30662;51.210;7.656;2023-01-29T03:40:11;148032.97;;;-3.21;100.00
44926;BME280;30662;51.210;7.656;2023-01-29T03:45:55;148020.50;;;-3.26;100.00
44926;BME280;30662;51.210;7.656;2023-01-29T03:48:39;148020.50;;;-3.26;100.00
44926;BME280;30662;51.210;7.656;2023-01-29T03:51:29;148032.97;;;-3.21;100.00
44926;BME280;30662;51.210;7.656;2023-01-29T03:56:49;148012.97;;;-3.29;100.00
44926;BME280;30662;51.210;7.656;2023-01-29T03:59:44;148021.75;;;-3.25;100.00
44926;BME280;30662;51.210;7.656;2023-01-29T04:02:18;147990.44;;;-3.38;100.00
44926;BME280;30662;51.210;7.656;2023-01-29T04:04:56;147991.69;;;-3.38;100.00
44926;BME280;30662;51.210;7.656;2023-01-29T04:07:24;147990.44;;;-3.38;100.00
44926;BME280;30662;51.210;7.656;2023-01-29T04:10:04;147977.91;;;-3.43;100.00
44926;BME280;30662;51.210;7.656;2023-01-29T04:12:39;147969.16;;;-3.47;100.00
44926;BME280;30662;51.210;7.656;2023-01-29T04:15:10;147996.69;;;-3.36;100.00
44926;BME280;30662;51.210;7.656;2023-01-29T04:17:42;147954.13;;;-3.53;100.00
44926;BME280;30662;51.210;7.656;2023-01-29T04:20:10;147975.41;;;-3.44;100.00
44926;BME280;30662;51.210;7.656;2023-01-29T04:22:38;147979.16;;;-3.43;100.00
44926;BME280;30662;51.210;7.656;2023-01-29T04:25:10;147989.19;;;-3.39;100.00
44926;BME280;30662;51.210;7.656;2023-01-29T04:28:06;147936.59;;;-3.60;100.00
44926;BME280;30662;51.210;7.656;2023-01-29T04:30:46;147904.06;;;-3.73;100.00
44926;BME280;30662;51.210;7.656;2023-01-29T04:33:33;147927.81;;;-3.64;100.00
44926;BME280;30662;51.210;7.656;2023-01-29T04:39:07;147884.03;;;-3.81;100.00
44926;BME280;30662;51.210;7.656;2023-01-29T04:41:58;147945.34;;;-3.56;100.00
44926;BME280;30662;51.210;7.656;2023-01-29T04:44:42;147922.81;;;-3.66;100.00
44926;BME280;30662;51.210;7.656;2023-01-29T04:47:23;147957.88;;;-3.51;100.00
44926;BME280;30662;51.210;7.656;2023-01-29T05:00:44;147986.69;;;-3.40;100.00
44926;BME280;30662;51.210;7.656;2023-01-29T05:03:14;147987.94;;;-3.39;100.00
44926;BME280;30662;51.210;7.656;2023-01-29T05:05:44;147997.94;;;-3.35;100.00
44926;BME280;30662;51.210;7.656;2023-01-29T05:08:13;148007.97;;;-3.31;100.00
44926;BME280;30662;51.210;7.656;2023-01-29T05:10:41;148007.97;;;-3.31;100.00
44926;BME280;30662;51.210;7.656;2023-01-29T05:13:10;147979.16;;;-3.43;100.00
44926;BME280;30662;51.210;7.656;2023-01-29T05:16:13;147952.88;;;-3.53;100.00
44926;BME280;30662;51.210;7.656;2023-01-29T05:18:41;147927.81;;;-3.64;100.00
44926;BME280;30662;51.210;7.656;2023-01-29T05:21:08;147900.31;;;-3.75;100.00
44926;BME280;30662;51.210;7.656;2023-01-29T05:23:34;147909.03;;;-3.71;100.00
44926;BME280;30662;51.210;7.656;2023-01-29T05:26:00;147900.31;;;-3.75;100.00
44926;BME280;30662;51.210;7.656;2023-01-29T05:28:26;147907.78;;;-3.72;100.00
44926;BME280;30662;51.210;7.656;2023-01-29T05:30:54;147921.56;;;-3.66;100.00
44926;BME280;30662;51.210;7.656;2023-01-29T05:33:26;147879.03;;;-3.83;100.00
44926;BME280;30662;51.210;7.656;2023-01-29T05:35:53;147871.50;;;-3.86;100.00
44926;BME280;30662;51.210;7.656;2023-01-29T05:38:20;147926.56;;;-3.64;100.00
44926;BME280;30662;51.210;7.656;2023-01-29T05:40:46;147936.59;;;-3.60;100.00
44926;BME280;30662;51.210;7.656;2023-01-29T05:43:23;147972.91;;;-3.45;100.00
44926;BME280;30662;51.210;7.656;2023-01-29T05:45:57;147967.91;;;-3.47;100.00
44926;BME280;30662;51.210;7.656;2023-01-29T05:48:25;147980.41;;;-3.42;100.00
44926;BME280;30662;51.210;7.656;2023-01-29T05:50:58;147979.16;;;-3.43;100.00
44926;BME280;30662;51.210;7.656;2023-01-29T05:53:24;147987.94;;;-3.39;100.00
44926;BME280;30662;51.210;7.656;2023-01-29T05:55:49;148011.72;;;-3.29;100.00
44926;BME280;30662;51.210;7.656;2023-01-29T05:58:15;148006.72;;;-3.31;100.00
44926;BME280;30662;51.210;7.656;2023-01-29T06:00:44;147996.69;;;-3.36;100.00
44926;BME280;30662;51.210;7.656;2023-01-29T06:03:10;147994.19;;;-3.37;100.00
44926;BME280;30662;51.210;7.656;2023-01-29T06:05:37;147992.94;;;-3.37;100.00
44926;BME280;30662;51.210;7.656;2023-01-29T06:08:03;147977.91;;;-3.43;100.00
44926;BME280;30662;51.210;7.656;2023-01-29T06:10:29;147982.91;;;-3.41;100.00
44926;BME280;30662;51.210;7.656;2023-01-29T06:12:55;147946.59;;;-3.56;100.00
44926;BME280;30662;51.210;7.656;2023-01-29T06:15:21;147940.34;;;-3.58;100.00
44926;BME280;30662;51.210;7.656;2023-01-29T06:17:47;147912.78;;;-3.70;100.00
44926;BME280;30662;51.210;7.656;2023-01-29T06:20:13;147919.09;;;-3.67;100.00
44926;BME280;30662;51.210;7.656;2023-01-29T06:22:39;147920.31;;;-3.67;100.00
44926;BME280;30662;51.210;7.656;2023-01-29T06:25:05;147937.84;;;-3.59;100.00
44926;BME280;30662;51.210;7.656;2023-01-29T06:27:31;147945.34;;;-3.56;100.00
44926;BME280;30662;51.210;7.656;2023-01-29T06:29:57;147945.34;;;-3.56;100.00
44926;BME280;30662;51.210;7.656;2023-01-29T06:32:23;147966.63;;;-3.48;100.00
44926;BME280;30662;51.210;7.656;2023-01-29T06:34:49;147929.06;;;-3.63;100.00
44926;BME280;30662;51.210;7.656;2023-01-29T06:37:15;147967.91;;;-3.47;100.00
44926;BME280;30662;51.210;7.656;2023-01-29T06:39:41;147927.81;;;-3.64;100.00
44926;BME280;30662;51.210;7.656;2023-01-29T06:42:07;147939.09;;;-3.59;100.00
44926;BME280;30662;51.210;7.656;2023-01-29T06:44:33;147982.91;;;-3.41;100.00
44926;BME280;30662;51.210;7.656;2023-01-29T06:46:59;147931.59;;;-3.62;100.00
44926;BME280;30662;51.210;7.656;2023-01-29T06:49:30;147945.34;;;-3.56;100.00
44926;BME280;30662;51.210;7.656;2023-01-29T06:51:56;147940.34;;;-3.58;100.00
44926;BME280;30662;51.210;7.656;2023-01-29T06:54:22;147942.84;;;-3.57;100.00
44926;BME280;30662;51.210;7.656;2023-01-29T06:56:48;147937.84;;;-3.59;100.00
44926;BME280;30662;51.210;7.656;2023-01-29T06:59:14;147950.38;;;-3.54;100.00
44926;BME280;30662;51.210;7.656;2023-01-29T07:01:40;147950.38;;;-3.54;100.00
44926;BME280;30662;51.210;7.656;2023-01-29T07:04:09;147926.56;;;-3.64;100.00
44926;BME280;30662;51.210;7.656;2023-01-29T07:06:36;147931.59;;;-3.62;100.00
44926;BME280;30662;51.210;7.656;2023-01-29T07:09:03;147926.56;;;-3.64;100.00
44926;BME280;30662;51.210;7.656;2023-01-29T07:11:29;147951.63;;;-3.54;100.00
44926;BME280;30662;51.210;7.656;2023-01-29T07:13:55;147950.38;;;-3.54;100.00
44926;BME280;30662;51.210;7.656;2023-01-29T07:16:21;147964.13;;;-3.49;100.00
44926;BME280;30662;51.210;7.656;2023-01-29T07:18:48;147951.63;;;-3.54;100.00
44926;BME280;30662;51.210;7.656;2023-01-29T07:21:14;147946.59;;;-3.56;100.00
44926;BME280;30662;51.210;7.656;2023-01-29T07:23:40;147965.38;;;-3.48;100.00
44926;BME280;30662;51.210;7.656;2023-01-29T07:26:06;147967.91;;;-3.47;100.00
44926;BME280;30662;51.210;7.656;2023-01-29T07:28:39;147987.94;;;-3.39;100.00
44926;BME280;30662;51.210;7.656;2023-01-29T07:31:06;147986.69;;;-3.40;100.00
44926;BME280;30662;51.210;7.656;2023-01-29T07:33:33;147966.63;;;-3.48;100.00
44926;BME280;30662;51.210;7.656;2023-01-29T07:35:59;147956.63;;;-3.52;100.00
44926;BME280;30662;51.210;7.656;2023-01-29T07:38:25;147919.09;;;-3.67;100.00
44926;BME280;30662;51.210;7.656;2023-01-29T07:40:51;147889.03;;;-3.79;100.00
44926;BME280;30662;51.210;7.656;2023-01-29T07:43:17;147896.56;;;-3.76;100.00
44926;BME280;30662;51.210;7.656;2023-01-29T07:45:43;147891.53;;;-3.78;100.00
44926;BME280;30662;51.210;7.656;2023-01-29T07:48:10;147920.31;;;-3.67;100.00
44926;BME280;30662;51.210;7.656;2023-01-29T07:50:38;147967.91;;;-3.47;100.00
44926;BME280;30662;51.210;7.656;2023-01-29T07:53:05;147966.63;;;-3.48;100.00
44926;BME280;30662;51.210;7.656;2023-01-29T07:55:32;147975.41;;;-3.44;100.00
44926;BME280;30662;51.210;7.656;2023-01-29T07:58:02;147997.94;;;-3.35;100.00
44926;BME280;30662;51.210;7.656;2023-01-29T08:00:29;148023.00;;;-3.25;100.00
44926;BME280;30662;51.210;7.656;2023-01-29T08:03:17;148032.97;;;-3.21;100.00
44926;BME280;30662;51.210;7.656;2023-01-29T08:05:45;148036.72;;;-3.19;100.00
44926;BME280;30662;51.210;7.656;2023-01-29T08:08:11;148037.97;;;-3.19;100.00
44926;BME280;30662;51.210;7.656;2023-01-29T08:10:39;148049.25;;;-3.14;100.00
44926;BME280;30662;51.210;7.656;2023-01-29T08:13:05;148059.31;;;-3.10;100.00
44926;BME280;30662;51.210;7.656;2023-01-29T08:15:32;148036.72;;;-3.19;100.00
44926;BME280;30662;51.210;7.656;2023-01-29T08:18:00;148024.25;;;-3.24;100.00
44926;BME280;30662;51.210;7.656;2023-01-29T08:20:26;148020.50;;;-3.26;100.00
44926;BME280;30662;51.210;7.656;2023-01-29T08:22:59;147941.59;;;-3.58;100.00
44926;BME280;30662;51.210;7.656;2023-01-29T08:25:26;147919.09;;;-3.67;100.00
44926;BME280;30662;51.210;7.656;2023-01-29T08:27:52;147904.06;;;-3.73;100.00
44926;BME280;30662;51.210;7.656;2023-01-29T08:30:18;147907.78;;;-3.72;100.00
44926;BME280;30662;51.210;7.656;2023-01-29T08:32:44;147887.78;;;-3.80;100.00
44926;BME280;30662;51.210;7.656;2023-01-29T08:35:10;147907.78;;;-3.72;100.00
44926;BME280;30662;51.210;7.656;2023-01-29T08:37:36;147909.03;;;-3.71;100.00
44926;BME280;30662;51.210;7.656;2023-01-29T08:40:02;147926.56;;;-3.64;100.00
44926;BME280;30662;51.210;7.656;2023-01-29T08:42:28;147920.31;;;-3.67;100.00
44926;BME280;30662;51.210;7.656;2023-01-29T08:44:54;147950.38;;;-3.54;100.00
44926;BME280;30662;51.210;7.656;2023-01-29T08:47:20;147947.84;;;-3.55;100.00
44926;BME280;30662;51.210;7.656;2023-01-29T08:49:46;147956.63;;;-3.52;100.00
44926;BME280;30662;51.210;7.656;2023-01-29T08:52:12;147932.84;;;-3.62;100.00
44926;BME280;30662;51.210;7.656;2023-01-29T08:54:38;147944.09;;;-3.57;100.00
44926;BME280;30662;51.210;7.656;2023-01-29T08:57:04;147944.09;;;-3.57;100.00
44926;BME280;30662;51.210;7.656;2023-01-29T08:59:30;147985.44;;;-3.40;100.00
44926;BME280;30662;51.210;7.656;2023-01-29T09:01:56;147977.91;;;-3.43;100.00
44926;BME280;30662;51.210;7.656;2023-01-29T09:04:22;147959.13;;;-3.51;100.00
44926;BME280;30662;51.210;7.656;2023-01-29T09:06:48;147967.91;;;-3.47;100.00
44926;BME280;30662;51.210;7.656;2023-01-29T09:09:14;147940.34;;;-3.58;100.00
44926;BME280;30662;51.210;7.656;2023-01-29T09:11:40;147935.34;;;-3.61;100.00
44926;BME280;30662;51.210;7.656;2023-01-29T09:14:06;147860.28;;;-3.91;100.00
44926;BME280;30662;51.210;7.656;2023-01-29T09:16:32;147912.78;;;-3.70;100.00
44926;BME280;30662;51.210;7.656;2023-01-29T09:18:57;147945.34;;;-3.56;100.00
44926;BME280;30662;51.210;7.656;2023-01-29T09:21:23;147971.66;;;-3.46;100.00
44926;BME280;30662;51.210;7.656;2023-01-29T09:23:49;147996.69;;;-3.36;100.00
44926;BME280;30662;51.210;7.656;2023-01-29T09:26:15;147980.41;;;-3.42;100.00
44926;BME280;30662;51.210;7.656;2023-01-29T09:28:41;147986.69;;;-3.40;100.00
44926;BME280;30662;51.210;7.656;2023-01-29T09:31:08;148006.72;;;-3.31;100.00
44926;BME280;30662;51.210;7.656;2023-01-29T09:33:34;147950.38;;;-3.54;100.00
44926;BME280;30662;51.210;7.656;2023-01-29T09:36:02;147979.16;;;-3.43;100.00
44926;BME280;30662;51.210;7.656;2023-01-29T09:38:28;147969.16;;;-3.47;100.00
44926;BME280;30662;51.210;7.656;2023-01-29T09:40:57;147949.09;;;-3.55;100.00
44926;BME280;30662;51.210;7.656;2023-01-29T09:43:45;147929.06;;;-3.63;100.00
44926;BME280;30662;51.210;7.656;2023-01-29T09:46:24;147955.38;;;-3.52;100.00
44926;BME280;30662;51.210;7.656;2023-01-29T09:49:00;148005.47;;;-3.32;100.00
44926;BME280;30662;51.210;7.656;2023-01-29T09:51:45;148007.97;;;-3.31;100.00
44926;BME280;30662;51.210;7.656;2023-01-29T09:54:22;148030.50;;;-3.22;100.00
44926;BME280;30662;51.210;7.656;2023-01-29T09:56:52;148011.72;;;-3.29;100.00
44926;BME280;30662;51.210;7.656;2023-01-29T09:59:21;148017.94;;;-3.27;100.00
44926;BME280;30662;51.210;7.656;2023-01-29T10:08:23;148144.44;;;-2.75;100.00
44926;BME280;30662;51.210;7.656;2023-01-29T10:14:01;148174.50;;;-2.63;100.00
44926;BME280;30662;51.210;7.656;2023-01-29T10:27:15;148035.47;;;-3.20;100.00
44926;BME280;30662;51.210;7.656;2023-01-29T10:29:42;148051.75;;;-3.13;100.00
44926;BME280;30662;51.210;7.656;2023-01-29T10:32:15;148065.56;;;-3.08;100.00
44926;BME280;30662;51.210;7.656;2023-01-29T10:34:47;148084.34;;;-3.00;100.00
44926;BME280;30662;51.210;7.656;2023-01-29T10:37:41;148066.81;;;-3.07;100.00
44926;BME280;30662;51.210;7.656;2023-01-29T10:50:46;148089.31;;;-2.98;100.00
44926;BME280;30662;51.210;7.656;2023-01-29T10:53:40;148118.16;;;-2.86;100.00
44926;BME280;30662;51.210;7.656;2023-01-29T10:58:52;148138.19;;;-2.78;100.00
44926;BME280;30662;51.210;7.656;2023-01-29T11:01:19;148124.41;;;-2.84;100.00
44926;BME280;30662;51.210;7.656;2023-01-29T11:03:55;148140.69;;;-2.77;100.00
44926;BME280;30662;51.210;7.656;2023-01-29T11:06:26;148149.47;;;-2.73;100.00
44926;BME280;30662;51.210;7.656;2023-01-29T11:09:04;148154.47;;;-2.71;100.00
44926;BME280;30662;51.210;7.656;2023-01-29T11:11:45;148190.81;;;-2.57;100.00
44926;BME280;30662;51.210;7.656;2023-01-29T11:14:21;148202.09;;;-2.52;100.00
44926;BME280;30662;51.210;7.656;2023-01-29T11:16:50;148174.50;;;-2.63;100.00
44926;BME280;30662;51.210;7.656;2023-01-29T11:19:16;148205.84;;;-2.51;100.00
44926;BME280;30662;51.210;7.656;2023-01-29T11:21:55;148198.31;;;-2.54;100.00
44926;BME280;30662;51.210;7.656;2023-01-29T11:24:22;148260.97;;;-2.28;100.00
44926;BME280;30662;51.210;7.656;2023-01-29T11:26:49;148224.66;;;-2.43;100.00
44926;BME280;30662;51.210;7.656;2023-01-29T11:31:53;148199.59;;;-2.53;100.00
44926;BME280;30662;51.210;7.656;2023-01-29T11:34:21;148160.72;;;-2.69;100.00
44926;BME280;30662;51.210;7.656;2023-01-29T11:37:01;148168.28;;;-2.66;100.00
44926;BME280;30662;51.210;7.656;2023-01-29T11:39:29;148178.28;;;-2.62;100.00
44926;BME280;30662;51.210;7.656;2023-01-29T11:42:00;148187.06;;;-2.58;100.00
44926;BME280;30662;51.210;7.656;2023-01-29T11:44:41;148154.47;;;-2.71;100.00
44926;BME280;30662;51.210;7.656;2023-01-29T11:49:48;148183.31;;;-2.60;100.00
44926;BME280;30662;51.210;7.656;2023-01-29T11:52:18;148204.59;;;-2.51;100.00
44926;BME280;30662;51.210;7.656;2023-01-29T11:57:47;148243.44;;;-2.35;100.00
44926;BME280;30662;51.210;7.656;2023-01-29T12:00:23;148292.31;;;-2.15;100.00
44926;BME280;30662;51.210;7.656;2023-01-29T12:03:11;148237.19;;;-2.38;100.00
44926;BME280;30662;51.210;7.656;2023-01-29T12:05:40;148175.78;;;-2.63;100.00
44926;BME280;30662;51.210;7.656;2023-01-29T12:08:18;148195.81;;;-2.55;100.00
44926;BME280;30662;51.210;7.656;2023-01-29T12:10:44;148172.03;;;-2.64;100.00
44926;BME280;30662;51.210;7.656;2023-01-29T12:15:46;148223.41;;;-2.43;100.00
44926;BME280;30662;51.210;7.656;2023-01-29T12:18:29;148237.19;;;-2.38;100.00
44926;BME280;30662;51.210;7.656;2023-01-29T12:21:10;148242.19;;;-2.36;100.00
44926;BME280;30662;51.210;7.656;2023-01-29T12:23:53;148218.41;;;-2.45;100.00
44926;BME280;30662;51.210;7.656;2023-01-29T12:26:33;148244.69;;;-2.35;100.00
44926;BME280;30662;51.210;7.656;2023-01-29T12:34:51;148284.78;;;-2.18;100.00
44926;BME280;30662;51.210;7.656;2023-01-29T12:37:25;148309.88;;;-2.08;100.00
44926;BME280;30662;51.210;7.656;2023-01-29T12:39:55;148306.13;;;-2.10;100.00
44926;BME280;30662;51.210;7.656;2023-01-29T12:42:22;148339.91;;;-1.96;100.00
44926;BME280;30662;51.210;7.656;2023-01-29T12:44:56;148314.88;;;-2.06;100.00
44926;BME280;30662;51.210;7.656;2023-01-29T12:47:30;148349.97;;;-1.92;100.00
44926;BME280;30662;51.210;7.656;2023-01-29T12:50:06;148316.13;;;-2.06;100.00
44926;BME280;30662;51.210;7.656;2023-01-29T12:52:44;148346.22;;;-1.93;100.00
44926;BME280;30662;51.210;7.656;2023-01-29T12:55:19;148380.06;;;-1.80;100.00
44926;BME280;30662;51.210;7.656;2023-01-29T12:57:56;148366.28;;;-1.85;100.00
44926;BME280;30662;51.210;7.656;2023-01-29T13:00:32;148323.66;;;-2.03;100.00
44926;BME280;30662;51.210;7.656;2023-01-29T13:03:12;148311.13;;;-2.08;100.00
44926;BME280;30662;51.210;7.656;2023-01-29T13:05:49;148326.16;;;-2.02;100.00
44926;BME280;30662;51.210;7.656;2023-01-29T13:08:34;148380.06;;;-1.80;100.00
44926;BME280;30662;51.210;7.656;2023-01-29T13:11:05;148357.47;;;-1.89;100.00
44926;BME280;30662;51.210;7.656;2023-01-29T13:13:44;148387.56;;;-1.77;100.00
44926;BME280;30662;51.210;7.656;2023-01-29T13:16:22;148395.13;;;-1.74;100.00
44926;BME280;30662;51.210;7.656;2023-01-29T13:19:01;148426.44;;;-1.61;100.00
44926;BME280;30662;51.210;7.656;2023-01-29T13:21:32;148470.34;;;-1.43;100.00
44926;BME280;30662;51.210;7.656;2023-01-29T13:24:03;148461.53;;;-1.47;100.00
44926;BME280;30662;51.210;7.656;2023-01-29T13:26:31;148501.72;;;-1.30;100.00
44926;BME280;30662;51.210;7.656;2023-01-29T13:28:59;148471.59;;;-1.43;100.00
44926;BME280;30662;51.210;7.656;2023-01-29T13:31:28;148435.22;;;-1.57;100.00
44926;BME280;30662;51.210;7.656;2023-01-29T13:34:44;148452.78;;;-1.50;100.00
44926;BME280;30662;51.210;7.656;2023-01-29T13:37:39;148506.72;;;-1.28;100.00
44926;BME280;30662;51.210;7.656;2023-01-29T13:40:17;148576.97;;;-1.00;100.00
44926;BME280;30662;51.210;7.656;2023-01-29T13:42:48;148535.53;;;-1.17;100.00
44926;BME280;30662;51.210;7.656;2023-01-29T13:45:23;148543.09;;;-1.14;100.00
44926;BME280;30662;51.210;7.656;2023-01-29T13:47:51;148549.34;;;-1.11;100.00
44926;BME280;30662;51.210;7.656;2023-01-29T13:50:29;148546.84;;;-1.12;100.00
44926;BME280;30662;51.210;7.656;2023-01-29T13:53:00;148584.47;;;-0.97;100.00
44926;BME280;30662;51.210;7.656;2023-01-29T13:55:38;148602.03;;;-0.90;100.00
44926;BME280;30662;51.210;7.656;2023-01-29T13:58:06;148617.09;;;-0.84;100.00
44926;BME280;30662;51.210;7.656;2023-01-29T14:10:39;148579.47;;;-0.99;100.00
44926;BME280;30662;51.210;7.656;2023-01-29T14:18:34;148589.47;;;-0.95;100.00
44926;BME280;30662;51.210;7.656;2023-01-29T14:21:06;148588.22;;;-0.95;100.00
44926;BME280;30662;51.210;7.656;2023-01-29T14:23:49;148554.34;;;-1.09;100.00
44926;BME280;30662;51.210;7.656;2023-01-29T14:26:42;148569.41;;;-1.03;100.00
44926;BME280;30662;51.210;7.656;2023-01-29T14:29:24;148517.97;;;-1.24;100.00
44926;BME280;30662;51.210;7.656;2023-01-29T14:34:42;148529.28;;;-1.19;100.00
44926;BME280;30662;51.210;7.656;2023-01-29T14:39:43;148526.78;;;-1.20;100.00
44926;BME280;30662;51.210;7.656;2023-01-29T14:42:35;148540.59;;;-1.15;100.00
44926;BME280;30662;51.210;7.656;2023-01-29T14:45:35;148541.84;;;-1.14;100.00
44926;BME280;30662;51.210;7.656;2023-01-29T14:53:05;148400.13;;;-1.72;100.00
44926;BME280;30662;51.210;7.656;2023-01-29T15:00:57;148401.38;;;-1.71;100.00
44926;BME280;30662;51.210;7.656;2023-01-29T15:03:34;148405.13;;;-1.70;100.00